createdAt,value
2018-05-18T00:00:54.924Z,1020.55
2018-05-18T00:02:03.783Z,1020.59
2018-05-18T00:03:12.923Z,1020.55
2018-05-18T00:04:21.779Z,1020.51
2018-05-18T00:05:30.734Z,1020.55
2018-05-18T00:06:39.591Z,1020.54
2018-05-18T00:07:48.449Z,1020.57
2018-05-18T00:08:57.309Z,1020.54
2018-05-18T00:10:06.175Z,1020.52
2018-05-18T00:11:15.584Z,1020.56
2018-05-18T00:12:24.444Z,1020.56
2018-05-18T00:13:33.303Z,1020.54
2018-05-18T00:14:42.163Z,1020.51
2018-05-18T00:15:51.033Z,1020.49
2018-05-18T00:17:00.231Z,1020.55
2018-05-18T00:18:09.095Z,1020.47
2018-05-18T00:19:17.945Z,1020.48
2018-05-18T00:20:27.091Z,1020.52
2018-05-18T00:21:35.950Z,1020.54
2018-05-18T00:22:44.806Z,1020.61
2018-05-18T00:23:53.664Z,1020.57
2018-05-18T00:25:02.525Z,1020.52
2018-05-18T00:26:11.382Z,1020.53
2018-05-18T00:27:20.240Z,1020.55
2018-05-18T00:28:29.547Z,1020.53
2018-05-18T00:29:38.694Z,1020.5
2018-05-18T00:30:47.549Z,1020.53
2018-05-18T00:31:56.411Z,1020.5
2018-05-18T00:33:05.264Z,1020.47
2018-05-18T00:34:14.748Z,1020.48
2018-05-18T00:35:23.883Z,1020.42
2018-05-18T00:36:32.742Z,1020.53
2018-05-18T00:37:41.600Z,1020.47
2018-05-18T00:38:50.456Z,1020.41
2018-05-18T00:39:59.499Z,1020.47
2018-05-18T00:41:08.783Z,1020.43
2018-05-18T00:42:17.981Z,1020.49
2018-05-18T00:43:27.394Z,1020.45
2018-05-18T00:44:36.529Z,1020.46
2018-05-18T00:45:45.391Z,1020.41
2018-05-18T00:46:54.521Z,1020.45
2018-05-18T00:48:03.376Z,1020.47
2018-05-18T00:49:12.237Z,1020.5
2018-05-18T00:50:21.094Z,1020.43
2018-05-18T00:51:29.953Z,1020.43
2018-05-18T00:52:38.811Z,1020.43
2018-05-18T00:53:47.667Z,1020.47
2018-05-18T00:54:56.524Z,1020.49
2018-05-18T00:56:05.383Z,1020.53
2018-05-18T00:57:14.287Z,1020.53
2018-05-18T00:58:23.145Z,1020.58
2018-05-18T00:59:32.003Z,1020.56
2018-05-18T01:00:40.865Z,1020.53
2018-05-18T01:01:50.280Z,1020.51
2018-05-18T01:02:59.486Z,1020.47
2018-05-18T01:04:08.341Z,1020.5
2018-05-18T01:05:17.198Z,1020.46
2018-05-18T01:06:26.337Z,1020.46
2018-05-18T01:07:35.198Z,1020.48
2018-05-18T01:08:44.107Z,1020.48
2018-05-18T01:09:52.962Z,1020.51
2018-05-18T01:11:02.102Z,1020.54
2018-05-18T01:12:10.960Z,1020.47
2018-05-18T01:13:19.815Z,1020.54
2018-05-18T01:14:28.673Z,1020.56
2018-05-18T01:15:37.529Z,1020.51
2018-05-18T01:16:46.393Z,1020.47
2018-05-18T01:17:55.530Z,1020.49
2018-05-18T01:19:04.389Z,1020.47
2018-05-18T01:20:13.246Z,1020.42
2018-05-18T01:21:22.102Z,1020.49
2018-05-18T01:22:30.963Z,1020.5
2018-05-18T01:23:39.815Z,1020.51
2018-05-18T01:24:48.671Z,1020.49
2018-05-18T01:25:58.052Z,1020.47
2018-05-18T01:27:06.908Z,1020.47
2018-05-18T01:28:16.105Z,1020.51
2018-05-18T01:29:25.237Z,1020.51
2018-05-18T01:30:34.098Z,1020.44
2018-05-18T01:31:42.958Z,1020.44
2018-05-18T01:32:51.808Z,1020.43
2018-05-18T01:34:00.669Z,1020.45
2018-05-18T01:35:09.804Z,1020.39
2018-05-18T01:36:18.970Z,1020.41
2018-05-18T01:37:27.804Z,1020.37
2018-05-18T01:38:36.660Z,1020.42
2018-05-18T01:39:46.072Z,1020.38
2018-05-18T01:40:54.928Z,1020.38
2018-05-18T01:42:03.786Z,1020.42
2018-05-18T01:43:12.642Z,1020.38
2018-05-18T01:44:21.499Z,1020.35
2018-05-18T01:45:30.356Z,1020.37
2018-05-18T01:46:39.212Z,1020.35
2018-05-18T01:47:48.421Z,1020.34
2018-05-18T01:48:57.378Z,1020.34
2018-05-18T01:50:06.235Z,1020.37
2018-05-18T01:51:15.091Z,1020.4
2018-05-18T01:52:23.946Z,1020.36
2018-05-18T01:53:32.801Z,1020.42
2018-05-18T01:54:42.073Z,1020.39
2018-05-18T01:55:51.141Z,1020.38
2018-05-18T01:56:59.998Z,1020.41
2018-05-18T01:58:08.856Z,1020.4
2018-05-18T01:59:17.988Z,1020.39
2018-05-18T02:00:26.995Z,1020.5
2018-05-18T02:01:36.131Z,1020.44
2018-05-18T02:02:44.988Z,1020.43
2018-05-18T02:03:53.844Z,1020.49
2018-05-18T02:05:02.701Z,1020.47
2018-05-18T02:06:12.067Z,1020.49
2018-05-18T02:07:20.929Z,1020.44
2018-05-18T02:08:30.069Z,1020.48
2018-05-18T02:09:39.205Z,1020.43
2018-05-18T02:10:48.339Z,1020.49
2018-05-18T02:11:57.245Z,1020.43
2018-05-18T02:13:06.108Z,1020.46
2018-05-18T02:14:15.528Z,1020.41
2018-05-18T02:15:24.664Z,1020.48
2018-05-18T02:16:33.519Z,1020.39
2018-05-18T02:17:42.670Z,1020.44
2018-05-18T02:18:51.530Z,1020.39
2018-05-18T02:20:00.387Z,1020.41
2018-05-18T02:21:09.248Z,1020.42
2018-05-18T02:22:18.202Z,1020.42
2018-05-18T02:23:27.210Z,1020.39
2018-05-18T02:24:36.068Z,1020.42
2018-05-18T02:25:44.924Z,1020.37
2018-05-18T02:26:53.782Z,1020.43
2018-05-18T02:28:02.636Z,1020.41
2018-05-18T02:29:11.924Z,1020.47
2018-05-18T02:30:20.789Z,1020.5
2018-05-18T02:31:29.645Z,1020.48
2018-05-18T02:32:38.502Z,1020.43
2018-05-18T02:33:47.638Z,1020.46
2018-05-18T02:34:56.847Z,1020.48
2018-05-18T02:36:05.708Z,1020.47
2018-05-18T02:37:14.845Z,1020.52
2018-05-18T02:38:24.548Z,1020.44
2018-05-18T02:39:33.412Z,1020.52
2018-05-18T02:40:42.423Z,1020.5
2018-05-18T02:41:51.833Z,1020.48
2018-05-18T02:43:01.260Z,1020.48
2018-05-18T02:44:10.129Z,1020.49
2018-05-18T02:45:19.265Z,1020.5
2018-05-18T02:46:28.172Z,1020.47
2018-05-18T02:47:37.040Z,1020.44
2018-05-18T02:48:46.465Z,1020.46
2018-05-18T02:49:55.599Z,1020.42
2018-05-18T02:51:04.454Z,1020.32
2018-05-18T02:52:13.590Z,1020.38
2018-05-18T02:53:22.797Z,1020.4
2018-05-18T02:54:31.937Z,1020.49
2018-05-18T02:55:40.794Z,1020.47
2018-05-18T02:56:49.933Z,1020.5
2018-05-18T02:57:59.168Z,1020.46
2018-05-18T02:59:08.025Z,1020.43
2018-05-18T03:00:17.159Z,1020.4
2018-05-18T03:01:26.020Z,1020.49
2018-05-18T03:02:35.702Z,1020.42
2018-05-18T03:03:45.461Z,1020.4
2018-05-18T03:04:54.331Z,1020.41
2018-05-18T03:06:03.475Z,1020.4
2018-05-18T03:07:12.340Z,1020.42
2018-05-18T03:08:21.474Z,1020.36
2018-05-18T03:09:31.281Z,1020.4
2018-05-18T03:10:40.140Z,1020.42
2018-05-18T03:11:49.004Z,1020.41
2018-05-18T03:12:58.159Z,1020.41
2018-05-18T03:14:07.007Z,1020.45
2018-05-18T03:15:16.149Z,1020.39
2018-05-18T03:16:25.013Z,1020.35
2018-05-18T03:17:34.147Z,1020.37
2018-05-18T03:18:43.279Z,1020.37
2018-05-18T03:19:52.134Z,1020.34
2018-05-18T03:21:01.111Z,1020.31
2018-05-18T03:22:09.957Z,1020.34
2018-05-18T03:23:19.092Z,1020.33
2018-05-18T03:24:27.949Z,1020.37
2018-05-18T03:25:36.805Z,1020.37
2018-05-18T03:26:45.813Z,1020.33
2018-05-18T03:27:54.669Z,1020.4
2018-05-18T03:29:03.527Z,1020.34
2018-05-18T03:30:12.666Z,1020.37
2018-05-18T03:31:21.801Z,1020.39
2018-05-18T03:32:31.551Z,1020.37
2018-05-18T03:33:40.409Z,1020.34
2018-05-18T03:34:49.268Z,1020.36
2018-05-18T03:35:58.121Z,1020.35
2018-05-18T03:37:06.978Z,1020.35
2018-05-18T03:38:16.644Z,1020.37
2018-05-18T03:39:25.503Z,1020.4
2018-05-18T03:40:34.362Z,1020.33
2018-05-18T03:41:43.223Z,1020.29
2018-05-18T03:42:52.080Z,1020.38
2018-05-18T03:44:01.140Z,1020.37
2018-05-18T03:45:09.997Z,1020.37
2018-05-18T03:46:19.133Z,1020.38
2018-05-18T03:47:28.267Z,1020.43
2018-05-18T03:48:37.125Z,1020.45
2018-05-18T03:49:46.131Z,1020.43
2018-05-18T03:50:54.987Z,1020.41
2018-05-18T03:52:03.845Z,1020.44
2018-05-18T03:53:12.702Z,1020.42
2018-05-18T03:54:21.560Z,1020.51
2018-05-18T03:55:30.845Z,1020.49
2018-05-18T03:56:39.987Z,1020.48
2018-05-18T03:57:48.843Z,1020.48
2018-05-18T03:58:57.981Z,1020.43
2018-05-18T04:00:06.838Z,1020.5
2018-05-18T04:01:15.843Z,1020.53
2018-05-18T04:02:24.987Z,1020.51
2018-05-18T04:03:33.845Z,1020.52
2018-05-18T04:04:42.700Z,1020.56
2018-05-18T04:05:51.558Z,1020.55
2018-05-18T04:07:00.464Z,1020.56
2018-05-18T04:08:09.606Z,1020.57
2018-05-18T04:09:18.466Z,1020.55
2018-05-18T04:10:27.325Z,1020.59
2018-05-18T04:11:36.190Z,1020.55
2018-05-18T04:12:45.045Z,1020.61
2018-05-18T04:13:54.184Z,1020.56
2018-05-18T04:15:03.041Z,1020.56
2018-05-18T04:16:11.896Z,1020.54
2018-05-18T04:17:21.321Z,1020.62
2018-05-18T04:18:30.629Z,1020.52
2018-05-18T04:19:39.486Z,1020.53
2018-05-18T04:20:48.626Z,1020.61
2018-05-18T04:21:57.483Z,1020.55
2018-05-18T04:23:06.342Z,1020.59
2018-05-18T04:24:15.348Z,1020.61
2018-05-18T04:25:24.205Z,1020.55
2018-05-18T04:26:33.066Z,1020.64
2018-05-18T04:27:42.207Z,1020.55
2018-05-18T04:28:51.063Z,1020.56
2018-05-18T04:29:59.990Z,1020.52
2018-05-18T04:31:09.084Z,1020.52
2018-05-18T04:32:18.222Z,1020.59
2018-05-18T04:33:27.085Z,1020.61
2018-05-18T04:34:36.218Z,1020.64
2018-05-18T04:35:45.137Z,1020.58
2018-05-18T04:36:54.275Z,1020.59
2018-05-18T04:38:03.130Z,1020.61
2018-05-18T04:39:11.988Z,1020.83
2018-05-18T04:40:20.846Z,1020.66
2018-05-18T04:41:29.982Z,1020.66
2018-05-18T04:42:38.842Z,1020.65
2018-05-18T04:43:48.234Z,1020.65
2018-05-18T04:44:57.094Z,1020.7
2018-05-18T04:46:05.956Z,1020.7
2018-05-18T04:47:14.908Z,1020.68
2018-05-18T04:48:23.767Z,1020.72
2018-05-18T04:49:32.629Z,1020.71
2018-05-18T04:50:41.765Z,1020.67
2018-05-18T04:51:51.216Z,1020.73
2018-05-18T04:53:00.227Z,1020.7
2018-05-18T04:54:09.081Z,1020.68
2018-05-18T04:55:17.944Z,1020.74
2018-05-18T04:56:26.798Z,1020.78
2018-05-18T04:57:35.654Z,1020.77
2018-05-18T04:58:44.535Z,1020.77
2018-05-18T04:59:53.378Z,1020.81
2018-05-18T05:01:02.788Z,1020.78
2018-05-18T05:02:11.925Z,1020.77
2018-05-18T05:03:20.788Z,1020.78
2018-05-18T05:04:29.747Z,1020.79
2018-05-18T05:05:38.608Z,1020.83
2018-05-18T05:06:47.767Z,1020.8
2018-05-18T05:07:56.901Z,1020.84
2018-05-18T05:09:05.758Z,1020.86
2018-05-18T05:10:15.066Z,1020.9
2018-05-18T05:11:24.269Z,1020.85
2018-05-18T05:12:34.119Z,1020.91
2018-05-18T05:13:43.875Z,1021.02
2018-05-18T05:14:54.165Z,1020.94
2018-05-18T05:16:04.482Z,1020.93
2018-05-18T05:17:14.079Z,1020.98
2018-05-18T05:18:22.938Z,1020.96
2018-05-18T05:19:31.796Z,1020.96
2018-05-18T05:20:40.654Z,1020.99
2018-05-18T05:21:49.664Z,1021
2018-05-18T05:22:58.521Z,1021.01
2018-05-18T05:24:07.696Z,1020.97
2018-05-18T05:25:16.553Z,1021.04
2018-05-18T05:26:25.409Z,1020.99
2018-05-18T05:27:34.367Z,1021.04
2018-05-18T05:28:43.225Z,1021.01
2018-05-18T05:29:52.083Z,1020.98
2018-05-18T05:31:01.217Z,1021.03
2018-05-18T05:32:10.074Z,1021.09
2018-05-18T05:33:18.984Z,1021.04
2018-05-18T05:34:28.117Z,1021.05
2018-05-18T05:35:36.975Z,1021.03
2018-05-18T05:36:45.925Z,1021.05
2018-05-18T05:37:55.068Z,1021.09
2018-05-18T05:39:03.926Z,1021.16
2018-05-18T05:40:12.786Z,1021.08
2018-05-18T05:41:21.642Z,1021.11
2018-05-18T05:42:30.502Z,1021.14
2018-05-18T05:43:39.361Z,1021.11
2018-05-18T05:44:48.267Z,1021.16
2018-05-18T05:45:57.403Z,1021.13
2018-05-18T05:47:06.262Z,1021.16
2018-05-18T05:48:15.119Z,1021.18
2018-05-18T05:49:23.979Z,1021.15
2018-05-18T05:50:32.986Z,1021.22
2018-05-18T05:51:41.846Z,1021.23
2018-05-18T05:52:50.740Z,1021.22
2018-05-18T05:53:59.977Z,1021.21
2018-05-18T05:55:08.842Z,1021.23
2018-05-18T05:56:17.749Z,1021.18
2018-05-18T05:57:26.610Z,1021.26
2018-05-18T05:58:35.536Z,1021.24
2018-05-18T05:59:44.329Z,1021.26
2018-05-18T06:00:53.186Z,1021.21
2018-05-18T06:02:02.151Z,1021.23
2018-05-18T06:03:11.287Z,1021.25
2018-05-18T06:04:20.144Z,1021.25
2018-05-18T06:05:29.380Z,1021.24
2018-05-18T06:06:38.138Z,1021.33
2018-05-18T06:07:47.432Z,1021.31
2018-05-18T06:08:56.568Z,1021.34
2018-05-18T06:10:05.428Z,1021.38
2018-05-18T06:11:14.289Z,1021.42
2018-05-18T06:12:23.150Z,1021.34
2018-05-18T06:13:32.057Z,1021.33
2018-05-18T06:14:40.916Z,1021.34
2018-05-18T06:15:49.773Z,1021.33
2018-05-18T06:17:30.689Z,1021.32
2018-05-18T06:18:39.698Z,1021.38
2018-05-18T06:19:48.556Z,1021.39
2018-05-18T06:20:57.415Z,1021.42
2018-05-18T06:22:06.280Z,1021.38
2018-05-18T06:23:15.415Z,1021.42
2018-05-18T06:24:24.575Z,1021.47
2018-05-18T06:25:33.712Z,1021.45
2018-05-18T06:26:42.569Z,1021.42
2018-05-18T06:27:51.991Z,1021.48
2018-05-18T06:29:00.851Z,1021.52
2018-05-18T06:30:09.771Z,1021.46
2018-05-18T06:31:18.642Z,1021.5
2018-05-18T06:32:27.512Z,1021.46
2018-05-18T06:33:36.381Z,1021.53
2018-05-18T06:34:45.341Z,1021.49
2018-05-18T06:35:54.765Z,1021.56
2018-05-18T06:37:03.623Z,1021.49
2018-05-18T06:38:12.483Z,1021.58
2018-05-18T06:39:21.345Z,1021.56
2018-05-18T06:40:30.205Z,1021.56
2018-05-18T06:41:39.112Z,1021.6
2018-05-18T06:42:47.974Z,1021.63
2018-05-18T06:43:56.829Z,1021.65
2018-05-18T06:45:05.694Z,1021.65
2018-05-18T06:46:14.549Z,1021.69
2018-05-18T06:47:23.557Z,1021.62
2018-05-18T06:48:32.692Z,1021.65
2018-05-18T06:49:41.828Z,1021.64
2018-05-18T06:50:50.686Z,1021.64
2018-05-18T06:51:59.542Z,1021.65
2018-05-18T06:53:08.783Z,1021.61
2018-05-18T06:54:17.976Z,1021.64
2018-05-18T06:55:26.836Z,1021.63
2018-05-18T06:56:35.694Z,1021.62
2018-05-18T06:57:44.552Z,1021.63
2018-05-18T06:58:53.794Z,1021.61
2018-05-18T07:00:02.934Z,1021.6
2018-05-18T07:01:12.070Z,1021.57
2018-05-18T07:02:20.930Z,1021.58
2018-05-18T07:03:29.787Z,1021.58
2018-05-18T07:04:38.796Z,1021.54
2018-05-18T07:05:47.654Z,1021.59
2018-05-18T07:06:56.515Z,1021.55
2018-05-18T07:08:05.652Z,1021.54
2018-05-18T07:09:14.509Z,1021.57
2018-05-18T07:10:23.524Z,1021.59
2018-05-18T07:11:32.374Z,1021.64
2018-05-18T07:12:41.235Z,1021.62
2018-05-18T07:13:50.096Z,1021.61
2018-05-18T07:14:59.233Z,1021.67
2018-05-18T07:16:08.470Z,1021.64
2018-05-18T07:17:17.330Z,1021.66
2018-05-18T07:18:26.184Z,1021.67
2018-05-18T07:19:35.045Z,1021.67
2018-05-18T07:20:43.909Z,1021.65
2018-05-18T07:21:53.117Z,1021.67
2018-05-18T07:23:02.615Z,1021.68
2018-05-18T07:24:11.782Z,1021.68
2018-05-18T07:25:21.201Z,1021.73
2018-05-18T07:26:30.066Z,1021.69
2018-05-18T07:27:38.923Z,1021.71
2018-05-18T07:28:47.783Z,1021.7
2018-05-18T07:29:56.675Z,1021.68
2018-05-18T07:31:06.104Z,1021.66
2018-05-18T07:32:15.240Z,1021.75
2018-05-18T07:33:24.150Z,1021.67
2018-05-18T07:34:33.012Z,1021.68
2018-05-18T07:35:41.869Z,1021.71
2018-05-18T07:36:51.011Z,1021.75
2018-05-18T07:37:59.871Z,1021.73
2018-05-18T07:39:09.109Z,1021.78
2018-05-18T07:40:17.968Z,1021.78
2018-05-18T07:41:26.827Z,1021.77
2018-05-18T07:42:35.972Z,1021.75
2018-05-18T07:43:44.833Z,1021.74
2018-05-18T07:44:54.212Z,1021.76
2018-05-18T07:46:03.071Z,1021.77
2018-05-18T07:47:11.929Z,1021.77
2018-05-18T07:48:21.068Z,1021.81
2018-05-18T07:49:29.928Z,1021.79
2018-05-18T07:50:38.839Z,1021.81
2018-05-18T07:51:47.704Z,1021.79
2018-05-18T07:52:56.561Z,1021.74
2018-05-18T07:54:05.422Z,1021.78
2018-05-18T07:55:14.283Z,1021.82
2018-05-18T07:56:23.191Z,1021.86
2018-05-18T07:57:32.068Z,1021.87
2018-05-18T07:58:41.192Z,1021.86
2018-05-18T07:59:50.051Z,1021.84
2018-05-18T08:00:58.911Z,1021.86
2018-05-18T08:02:07.778Z,1021.88
2018-05-18T08:03:16.632Z,1021.85
2018-05-18T08:04:25.490Z,1021.85
2018-05-18T08:05:34.350Z,1021.9
2018-05-18T08:06:43.212Z,1021.84
2018-05-18T08:07:52.145Z,1021.86
2018-05-18T08:09:01.384Z,1021.85
2018-05-18T08:10:10.244Z,1021.83
2018-05-18T08:11:19.105Z,1021.84
2018-05-18T08:12:27.964Z,1021.85
2018-05-18T08:13:37.546Z,1021.83
2018-05-18T08:14:46.689Z,1021.9
2018-05-18T08:15:55.826Z,1021.92
2018-05-18T08:17:04.688Z,1021.94
2018-05-18T08:18:13.546Z,1021.94
2018-05-18T08:19:22.561Z,1021.98
2018-05-18T08:20:31.424Z,1021.98
2018-05-18T08:21:40.582Z,1021.96
2018-05-18T08:22:49.884Z,1021.97
2018-05-18T08:23:58.747Z,1021.93
2018-05-18T08:25:08.041Z,1021.96
2018-05-18T08:26:16.903Z,1021.94
2018-05-18T08:27:26.041Z,1021.95
2018-05-18T08:28:35.190Z,1021.95
2018-05-18T08:29:44.049Z,1022.01
2018-05-18T08:30:52.959Z,1021.93
2018-05-18T08:32:01.821Z,1021.99
2018-05-18T08:33:10.680Z,1021.94
2018-05-18T08:34:19.542Z,1022.01
2018-05-18T08:35:28.404Z,1022.02
2018-05-18T08:36:37.646Z,1021.98
2018-05-18T08:37:46.509Z,1022.03
2018-05-18T08:38:55.673Z,1022.03
2018-05-18T08:40:04.532Z,1022.05
2018-05-18T08:41:13.677Z,1022.05
2018-05-18T08:42:23.198Z,1022.03
2018-05-18T08:43:32.060Z,1022.05
2018-05-18T08:44:40.920Z,1022.06
2018-05-18T08:45:50.060Z,1022.05
2018-05-18T08:46:58.926Z,1022.03
2018-05-18T08:48:08.037Z,1022.05
2018-05-18T08:49:16.898Z,1022.1
2018-05-18T08:50:25.861Z,1022.04
2018-05-18T08:51:34.896Z,1022.07
2018-05-18T08:52:43.755Z,1022.11
2018-05-18T08:53:52.668Z,1022.05
2018-05-18T08:55:01.809Z,1022.04
2018-05-18T08:56:10.673Z,1022.07
2018-05-18T08:57:19.532Z,1022.07
2018-05-18T08:58:28.393Z,1022.14
2018-05-18T08:59:37.414Z,1022.08
2018-05-18T09:00:46.829Z,1022.09
2018-05-18T09:01:55.689Z,1022.05
2018-05-18T09:03:04.560Z,1022.06
2018-05-18T09:04:13.414Z,1022.11
2018-05-18T09:05:22.602Z,1022.09
2018-05-18T09:06:31.465Z,1022.12
2018-05-18T09:07:40.606Z,1022.09
2018-05-18T09:08:49.525Z,1022.1
2018-05-18T09:09:58.772Z,1022.09
2018-05-18T09:11:07.782Z,1022.12
2018-05-18T09:12:16.640Z,1022.09
2018-05-18T09:13:26.062Z,1022.12
2018-05-18T09:14:34.923Z,1022.17
2018-05-18T09:15:43.784Z,1022.13
2018-05-18T09:16:53.031Z,1022.15
2018-05-18T09:18:01.889Z,1022.12
2018-05-18T09:19:10.750Z,1022.12
2018-05-18T09:20:19.609Z,1022.1
2018-05-18T09:21:28.473Z,1022.16
2018-05-18T09:22:37.629Z,1022.14
2018-05-18T09:23:46.502Z,1022.14
2018-05-18T09:24:55.641Z,1022.17
2018-05-18T09:26:04.501Z,1022.16
2018-05-18T09:27:13.362Z,1022.14
2018-05-18T09:28:22.275Z,1022.15
2018-05-18T09:29:31.138Z,1022.14
2018-05-18T09:30:39.998Z,1022.17
2018-05-18T09:31:49.135Z,1022.14
2018-05-18T09:32:57.995Z,1022.2
2018-05-18T09:34:07.114Z,1022.14
2018-05-18T09:35:16.735Z,1022.13
2018-05-18T09:36:25.595Z,1022.14
2018-05-18T09:37:34.739Z,1022.1
2018-05-18T09:38:43.602Z,1022.09
2018-05-18T09:39:52.778Z,1022.1
2018-05-18T09:41:02.015Z,1022.1
2018-05-18T09:42:10.873Z,1022.1
2018-05-18T09:43:19.735Z,1022.09
2018-05-18T09:44:28.598Z,1022.1
2018-05-18T09:45:37.660Z,1022.14
2018-05-18T09:46:46.524Z,1022.1
2018-05-18T09:47:55.665Z,1022.13
2018-05-18T09:49:04.528Z,1022.11
2018-05-18T09:50:13.689Z,1022.13
2018-05-18T09:51:22.552Z,1022.13
2018-05-18T09:52:31.412Z,1022.14
2018-05-18T09:53:40.276Z,1022.1
2018-05-18T09:54:49.566Z,1022.14
2018-05-18T09:56:00.052Z,1022.12
2018-05-18T09:57:09.404Z,1022.13
2018-05-18T09:58:18.265Z,1022.07
2018-05-18T09:59:27.124Z,1022.13
2018-05-18T10:00:35.990Z,1022.07
2018-05-18T10:01:45.200Z,1022.1
2018-05-18T10:02:54.215Z,1022.14
2018-05-18T10:04:03.077Z,1022.13
2018-05-18T10:05:11.941Z,1022.14
2018-05-18T10:06:20.802Z,1022.09
2018-05-18T10:07:29.662Z,1022.11
2018-05-18T10:08:38.689Z,1022.06
2018-05-18T10:09:47.554Z,1022.08
2018-05-18T10:10:56.515Z,1022.08
2018-05-18T10:12:05.433Z,1022.07
2018-05-18T10:13:14.403Z,1022.08
2018-05-18T10:14:23.874Z,1022.16
2018-05-18T10:15:32.836Z,1022.07
2018-05-18T10:16:42.420Z,1022.06
2018-05-18T10:17:51.376Z,1022.04
2018-05-18T10:19:00.673Z,1022.03
2018-05-18T10:20:10.318Z,1022.09
2018-05-18T10:21:19.346Z,1022.13
2018-05-18T10:22:28.350Z,1022.12
2018-05-18T10:23:37.503Z,1022.1
2018-05-18T10:24:46.608Z,1022.15
2018-05-18T10:25:55.808Z,1022.14
2018-05-18T10:27:04.915Z,1022.16
2018-05-18T10:28:13.745Z,1022.14
2018-05-18T10:29:22.686Z,1022.11
2018-05-18T10:30:32.132Z,1022.15
2018-05-18T10:31:41.109Z,1022.16
2018-05-18T10:32:50.200Z,1022.16
2018-05-18T10:34:00.042Z,1022.19
2018-05-18T10:35:09.227Z,1022.27
2018-05-18T10:36:18.271Z,1022.17
2018-05-18T10:37:27.519Z,1022.2
2018-05-18T10:38:36.556Z,1022.23
2018-05-18T10:39:45.609Z,1022.23
2018-05-18T10:40:54.662Z,1022.28
2018-05-18T10:42:03.770Z,1022.2
2018-05-18T10:43:13.604Z,1022.24
2018-05-18T10:44:23.356Z,1022.25
2018-05-18T10:45:32.644Z,1022.23
2018-05-18T10:46:41.505Z,1022.25
2018-05-18T10:47:50.645Z,1022.24
2018-05-18T10:48:59.561Z,1022.25
2018-05-18T10:50:08.422Z,1022.26
2018-05-18T10:51:17.284Z,1022.21
2018-05-18T10:52:26.146Z,1022.22
2018-05-18T10:53:35.571Z,1022.26
2018-05-18T10:54:44.865Z,1022.27
2018-05-18T10:55:54.004Z,1022.25
2018-05-18T10:57:03.143Z,1022.22
2018-05-18T10:58:12.009Z,1022.2
2018-05-18T10:59:20.873Z,1022.18
2018-05-18T11:00:29.784Z,1022.22
2018-05-18T11:01:38.648Z,1022.18
2018-05-18T11:02:47.508Z,1022.22
2018-05-18T11:03:56.371Z,1022.18
2018-05-18T11:05:05.515Z,1022.17
2018-05-18T11:06:14.839Z,1022.17
2018-05-18T11:07:23.699Z,1022.16
2018-05-18T11:08:32.561Z,1022.16
2018-05-18T11:09:41.422Z,1022.15
2018-05-18T11:10:50.283Z,1022.17
2018-05-18T11:11:59.497Z,1022.13
2018-05-18T11:13:08.357Z,1022.13
2018-05-18T11:14:17.687Z,1022.18
2018-05-18T11:15:26.368Z,1022.17
2018-05-18T11:16:35.513Z,1022.16
2018-05-18T11:17:44.379Z,1022.13
2018-05-18T11:18:53.244Z,1022.13
2018-05-18T11:20:02.126Z,1022.13
2018-05-18T11:21:11.280Z,1022.14
2018-05-18T11:22:20.143Z,1022.12
2018-05-18T11:23:29.614Z,1022.17
2018-05-18T11:24:38.754Z,1022.13
2018-05-18T11:25:47.613Z,1022.09
2018-05-18T11:26:56.757Z,1022.18
2018-05-18T11:28:05.901Z,1022.17
2018-05-18T11:29:14.965Z,1022.22
2018-05-18T11:30:24.102Z,1022.25
2018-05-18T11:31:32.964Z,1022.2
2018-05-18T11:32:41.827Z,1022.16
2018-05-18T11:33:50.967Z,1022.2
2018-05-18T11:35:00.163Z,1022.16
2018-05-18T11:36:09.304Z,1022.2
2018-05-18T11:37:18.165Z,1022.15
2018-05-18T11:38:27.026Z,1022.2
2018-05-18T11:39:35.891Z,1022.14
2018-05-18T11:40:44.803Z,1022.18
2018-05-18T11:41:53.944Z,1022.22
2018-05-18T11:43:03.084Z,1022.17
2018-05-18T11:44:11.944Z,1022.21
2018-05-18T11:45:20.807Z,1022.22
2018-05-18T11:46:29.821Z,1022.28
2018-05-18T11:47:38.968Z,1022.23
2018-05-18T11:48:47.829Z,1022.23
2018-05-18T11:49:56.694Z,1022.27
2018-05-18T11:51:05.858Z,1022.26
2018-05-18T11:52:15.918Z,1022.25
2018-05-18T11:53:25.062Z,1022.23
2018-05-18T11:54:34.014Z,1022.22
2018-05-18T11:55:43.437Z,1022.22
2018-05-18T11:56:52.294Z,1022.22
2018-05-18T11:58:01.260Z,1022.18
2018-05-18T11:59:10.123Z,1022.29
2018-05-18T12:00:19.039Z,1022.24
2018-05-18T12:01:27.902Z,1022.19
2018-05-18T12:02:37.318Z,1022.23
2018-05-18T12:03:46.231Z,1022.24
2018-05-18T12:04:55.377Z,1022.25
2018-05-18T12:06:04.239Z,1022.28
2018-05-18T12:07:13.396Z,1022.27
2018-05-18T12:08:22.348Z,1022.23
2018-05-18T12:09:31.275Z,1022.24
2018-05-18T12:10:40.500Z,1022.21
2018-05-18T12:11:49.365Z,1022.2
2018-05-18T12:12:58.513Z,1022.22
2018-05-18T12:14:07.390Z,1022.2
2018-05-18T12:15:17.021Z,1022.21
2018-05-18T12:16:26.163Z,1022.23
2018-05-18T12:17:35.030Z,1022.21
2018-05-18T12:18:43.890Z,1022.13
2018-05-18T12:19:53.040Z,1022.14
2018-05-18T12:21:01.957Z,1022.16
2018-05-18T12:22:11.105Z,1022.1
2018-05-18T12:23:20.248Z,1022.12
2018-05-18T12:24:29.391Z,1022.13
2018-05-18T12:25:38.254Z,1022.15
2018-05-18T12:26:47.396Z,1022.16
2018-05-18T12:27:56.538Z,1022.16
2018-05-18T12:29:05.682Z,1022.12
2018-05-18T12:30:14.551Z,1022.08
2018-05-18T12:31:23.947Z,1022.11
2018-05-18T12:32:32.811Z,1022.09
2018-05-18T12:33:41.676Z,1022.11
2018-05-18T12:34:51.096Z,1022.05
2018-05-18T12:36:00.237Z,1022.11
2018-05-18T12:37:09.527Z,1022.06
2018-05-18T12:38:18.784Z,1022.03
2018-05-18T12:39:27.926Z,1022.02
2018-05-18T12:40:37.072Z,1022.07
2018-05-18T12:41:45.941Z,1022.04
2018-05-18T12:42:55.083Z,1021.99
2018-05-18T12:44:04.224Z,1022
2018-05-18T12:45:13.368Z,1021.97
2018-05-18T12:46:22.232Z,1022
2018-05-18T12:47:31.096Z,1022.08
2018-05-18T12:48:40.113Z,1021.99
2018-05-18T12:49:48.982Z,1022.01
2018-05-18T12:50:57.844Z,1021.99
2018-05-18T12:52:06.992Z,1021.93
2018-05-18T12:53:15.860Z,1021.93
2018-05-18T12:54:24.774Z,1021.92
2018-05-18T12:55:33.641Z,1021.94
2018-05-18T12:56:42.510Z,1021.9
2018-05-18T12:57:51.376Z,1021.91
2018-05-18T12:59:00.247Z,1021.86
2018-05-18T13:00:09.162Z,1021.92
2018-05-18T13:01:18.029Z,1021.91
2018-05-18T13:02:26.893Z,1021.87
2018-05-18T13:03:35.756Z,1021.9
2018-05-18T13:04:44.622Z,1021.88
2018-05-18T13:05:53.911Z,1021.86
2018-05-18T13:07:02.776Z,1021.93
2018-05-18T13:08:11.674Z,1021.85
2018-05-18T13:09:20.838Z,1021.86
2018-05-18T13:10:29.705Z,1021.89
2018-05-18T13:11:39.006Z,1021.87
2018-05-18T13:12:47.872Z,1021.9
2018-05-18T13:13:56.732Z,1021.86
2018-05-18T13:15:05.599Z,1021.88
2018-05-18T13:16:14.466Z,1021.92
2018-05-18T13:17:23.381Z,1021.94
2018-05-18T13:18:32.531Z,1021.8
2018-05-18T13:19:41.401Z,1021.85
2018-05-18T13:20:50.271Z,1021.78
2018-05-18T13:21:59.135Z,1021.78
2018-05-18T13:23:08.053Z,1021.87
2018-05-18T13:24:16.919Z,1021.85
2018-05-18T13:25:25.783Z,1021.82
2018-05-18T13:26:34.651Z,1021.86
2018-05-18T13:27:43.522Z,1021.86
2018-05-18T13:28:52.390Z,1021.93
2018-05-18T13:30:01.258Z,1021.77
2018-05-18T13:31:10.697Z,1021.78
2018-05-18T13:32:19.839Z,1021.89
2018-05-18T13:33:28.712Z,1021.88
2018-05-18T13:34:37.676Z,1021.95
2018-05-18T13:35:46.548Z,1022
2018-05-18T13:36:55.417Z,1021.93
2018-05-18T13:38:04.569Z,1021.95
2018-05-18T13:39:13.725Z,1021.81
2018-05-18T13:40:22.924Z,1021.91
2018-05-18T13:41:32.083Z,1021.95
2018-05-18T13:42:40.959Z,1021.78
2018-05-18T13:43:49.839Z,1021.96
2018-05-18T13:44:59.051Z,1021.96
2018-05-18T13:46:08.665Z,1022.01
2018-05-18T13:47:17.822Z,1022.05
2018-05-18T13:48:27.242Z,1021.99
2018-05-18T13:49:36.120Z,1022
2018-05-18T13:50:44.991Z,1022.02
2018-05-18T13:51:53.869Z,1022.03
2018-05-18T13:53:03.026Z,1022
2018-05-18T13:54:11.902Z,1022.01
2018-05-18T13:55:20.777Z,1022.03
2018-05-18T13:56:29.651Z,1021.96
2018-05-18T13:57:39.261Z,1022.03
2018-05-18T13:58:48.413Z,1022.01